sensor_id;sensor_type;location;lat;lon;timestamp;temperature;humidity
528;DHT22;250;47.712;7.508;2022-12-11T00:00:47;2.70;33.00
528;DHT22;250;47.712;7.508;2022-12-11T00:03:15;2.80;32.90
528;DHT22;250;47.712;7.508;2022-12-11T00:05:43;2.80;32.80
528;DHT22;250;47.712;7.508;2022-12-11T00:08:11;2.80;32.70
528;DHT22;250;47.712;7.508;2022-12-11T00:10:45;2.80;32.50
528;DHT22;250;47.712;7.508;2022-12-11T00:13:12;2.80;32.40
528;DHT22;250;47.712;7.508;2022-12-11T00:15:40;2.80;32.40
528;DHT22;250;47.712;7.508;2022-12-11T00:18:08;2.80;32.40
528;DHT22;250;47.712;7.508;2022-12-11T00:20:38;2.80;32.50
528;DHT22;250;47.712;7.508;2022-12-11T00:23:05;2.80;32.70
528;DHT22;250;47.712;7.508;2022-12-11T00:25:32;2.80;32.80
528;DHT22;250;47.712;7.508;2022-12-11T00:28:00;2.90;32.90
528;DHT22;250;47.712;7.508;2022-12-11T00:30:27;2.90;32.90
528;DHT22;250;47.712;7.508;2022-12-11T00:32:54;2.90;32.50
528;DHT22;250;47.712;7.508;2022-12-11T00:35:21;2.90;32.70
528;DHT22;250;47.712;7.508;2022-12-11T00:37:48;3.00;32.70
528;DHT22;250;47.712;7.508;2022-12-11T00:40:15;3.00;32.30
528;DHT22;250;47.712;7.508;2022-12-11T00:42:43;3.00;32.30
528;DHT22;250;47.712;7.508;2022-12-11T00:45:11;2.90;32.10
528;DHT22;250;47.712;7.508;2022-12-11T00:47:38;2.90;32.00
528;DHT22;250;47.712;7.508;2022-12-11T00:50:06;2.90;31.90
528;DHT22;250;47.712;7.508;2022-12-11T00:52:33;3.00;31.90
528;DHT22;250;47.712;7.508;2022-12-11T00:55:00;3.00;31.70
528;DHT22;250;47.712;7.508;2022-12-11T00:57:27;3.00;31.40
528;DHT22;250;47.712;7.508;2022-12-11T00:59:54;3.00;31.40
528;DHT22;250;47.712;7.508;2022-12-11T01:02:23;2.90;31.30
528;DHT22;250;47.712;7.508;2022-12-11T01:04:50;2.90;31.40
528;DHT22;250;47.712;7.508;2022-12-11T01:07:17;2.90;31.40
528;DHT22;250;47.712;7.508;2022-12-11T01:09:44;2.90;31.60
528;DHT22;250;47.712;7.508;2022-12-11T01:12:29;2.80;31.80
528;DHT22;250;47.712;7.508;2022-12-11T01:14:56;2.80;31.90
528;DHT22;250;47.712;7.508;2022-12-11T01:17:24;2.80;32.20
528;DHT22;250;47.712;7.508;2022-12-11T01:19:53;2.80;32.30
528;DHT22;250;47.712;7.508;2022-12-11T01:22:20;2.70;32.40
528;DHT22;250;47.712;7.508;2022-12-11T01:24:47;2.70;32.60
528;DHT22;250;47.712;7.508;2022-12-11T01:27:14;2.70;32.50
528;DHT22;250;47.712;7.508;2022-12-11T01:29:41;2.70;32.80
528;DHT22;250;47.712;7.508;2022-12-11T01:32:08;2.60;33.20
528;DHT22;250;47.712;7.508;2022-12-11T01:34:37;2.60;33.20
528;DHT22;250;47.712;7.508;2022-12-11T01:37:04;2.60;32.70
528;DHT22;250;47.712;7.508;2022-12-11T01:39:31;2.60;32.20
528;DHT22;250;47.712;7.508;2022-12-11T01:41:59;2.60;32.50
528;DHT22;250;47.712;7.508;2022-12-11T01:45:12;2.60;33.30
528;DHT22;250;47.712;7.508;2022-12-11T01:47:42;2.60;33.70
528;DHT22;250;47.712;7.508;2022-12-11T01:50:11;2.60;33.90
528;DHT22;250;47.712;7.508;2022-12-11T01:52:38;2.60;34.00
528;DHT22;250;47.712;7.508;2022-12-11T01:55:07;2.50;34.00
528;DHT22;250;47.712;7.508;2022-12-11T01:57:35;2.60;34.10
528;DHT22;250;47.712;7.508;2022-12-11T02:00:04;2.50;34.00
528;DHT22;250;47.712;7.508;2022-12-11T02:02:32;2.40;33.90
528;DHT22;250;47.712;7.508;2022-12-11T02:05:01;2.30;34.40
528;DHT22;250;47.712;7.508;2022-12-11T02:07:38;2.30;34.40
528;DHT22;250;47.712;7.508;2022-12-11T02:10:07;2.30;33.80
528;DHT22;250;47.712;7.508;2022-12-11T02:12:38;2.30;33.80
528;DHT22;250;47.712;7.508;2022-12-11T02:15:11;2.40;33.50
528;DHT22;250;47.712;7.508;2022-12-11T02:17:45;2.50;33.00
528;DHT22;250;47.712;7.508;2022-12-11T02:20:18;2.50;32.40
528;DHT22;250;47.712;7.508;2022-12-11T02:23:12;2.60;31.70
528;DHT22;250;47.712;7.508;2022-12-11T02:25:48;2.60;32.00
528;DHT22;250;47.712;7.508;2022-12-11T02:28:23;2.50;31.90
528;DHT22;250;47.712;7.508;2022-12-11T02:30:56;2.40;32.50
528;DHT22;250;47.712;7.508;2022-12-11T02:33:35;2.30;32.90
528;DHT22;250;47.712;7.508;2022-12-11T02:36:06;2.40;33.20
528;DHT22;250;47.712;7.508;2022-12-11T02:38:37;2.30;33.30
528;DHT22;250;47.712;7.508;2022-12-11T02:41:07;2.20;33.80
528;DHT22;250;47.712;7.508;2022-12-11T02:43:38;2.30;33.80
528;DHT22;250;47.712;7.508;2022-12-11T02:46:07;2.30;33.70
528;DHT22;250;47.712;7.508;2022-12-11T02:48:36;2.30;33.20
528;DHT22;250;47.712;7.508;2022-12-11T02:51:04;2.30;32.50
528;DHT22;250;47.712;7.508;2022-12-11T02:53:35;2.20;32.50
528;DHT22;250;47.712;7.508;2022-12-11T02:56:07;2.20;32.10
528;DHT22;250;47.712;7.508;2022-12-11T02:58:41;2.10;31.60
528;DHT22;250;47.712;7.508;2022-12-11T03:01:10;1.90;31.60
528;DHT22;250;47.712;7.508;2022-12-11T03:03:37;1.90;31.50
528;DHT22;250;47.712;7.508;2022-12-11T03:06:05;1.80;31.90
528;DHT22;250;47.712;7.508;2022-12-11T03:08:32;1.70;31.90
528;DHT22;250;47.712;7.508;2022-12-11T03:10:59;1.60;31.50
528;DHT22;250;47.712;7.508;2022-12-11T03:13:26;1.60;31.00
528;DHT22;250;47.712;7.508;2022-12-11T03:16:05;1.50;30.30
528;DHT22;250;47.712;7.508;2022-12-11T03:18:41;1.50;31.20
528;DHT22;250;47.712;7.508;2022-12-11T03:21:15;1.50;31.00
528;DHT22;250;47.712;7.508;2022-12-11T03:23:49;1.50;30.80
528;DHT22;250;47.712;7.508;2022-12-11T03:26:18;1.40;30.00
528;DHT22;250;47.712;7.508;2022-12-11T03:28:48;1.30;30.70
528;DHT22;250;47.712;7.508;2022-12-11T03:31:22;1.30;31.10
528;DHT22;250;47.712;7.508;2022-12-11T03:33:53;1.30;30.70
528;DHT22;250;47.712;7.508;2022-12-11T03:36:24;1.20;31.00
528;DHT22;250;47.712;7.508;2022-12-11T03:38:56;1.20;31.40
528;DHT22;250;47.712;7.508;2022-12-11T03:41:26;1.20;31.50
528;DHT22;250;47.712;7.508;2022-12-11T03:43:56;1.30;31.30
528;DHT22;250;47.712;7.508;2022-12-11T03:46:28;1.30;31.50
528;DHT22;250;47.712;7.508;2022-12-11T03:49:01;1.20;31.30
528;DHT22;250;47.712;7.508;2022-12-11T03:51:31;1.10;31.40
528;DHT22;250;47.712;7.508;2022-12-11T03:53:59;1.00;31.90
528;DHT22;250;47.712;7.508;2022-12-11T03:56:28;1.10;32.40
528;DHT22;250;47.712;7.508;2022-12-11T03:58:57;1.10;31.70
528;DHT22;250;47.712;7.508;2022-12-11T04:01:27;1.10;31.60
528;DHT22;250;47.712;7.508;2022-12-11T04:03:54;1.00;32.10
528;DHT22;250;47.712;7.508;2022-12-11T04:06:21;1.00;32.70
528;DHT22;250;47.712;7.508;2022-12-11T04:08:48;1.00;32.70
528;DHT22;250;47.712;7.508;2022-12-11T04:11:15;1.00;32.70
528;DHT22;250;47.712;7.508;2022-12-11T04:14:00;1.00;32.70
528;DHT22;250;47.712;7.508;2022-12-11T04:16:46;1.00;32.70
528;DHT22;250;47.712;7.508;2022-12-11T04:19:13;1.00;32.70
528;DHT22;250;47.712;7.508;2022-12-11T04:21:58;1.00;32.30
528;DHT22;250;47.712;7.508;2022-12-11T04:24:42;1.10;32.80
528;DHT22;250;47.712;7.508;2022-12-11T04:27:09;1.20;32.80
528;DHT22;250;47.712;7.508;2022-12-11T04:29:36;1.20;31.90
528;DHT22;250;47.712;7.508;2022-12-11T04:32:05;1.10;31.80
528;DHT22;250;47.712;7.508;2022-12-11T04:34:32;1.10;31.90
528;DHT22;250;47.712;7.508;2022-12-11T04:36:59;1.00;32.70
528;DHT22;250;47.712;7.508;2022-12-11T04:39:26;1.00;32.70
528;DHT22;250;47.712;7.508;2022-12-11T04:41:53;1.00;32.60
528;DHT22;250;47.712;7.508;2022-12-11T04:44:20;1.00;32.70
528;DHT22;250;47.712;7.508;2022-12-11T04:46:47;0.90;32.60
528;DHT22;250;47.712;7.508;2022-12-11T04:49:16;0.90;32.60
528;DHT22;250;47.712;7.508;2022-12-11T04:51:43;1.00;32.70
528;DHT22;250;47.712;7.508;2022-12-11T04:54:10;1.00;32.70
528;DHT22;250;47.712;7.508;2022-12-11T04:56:37;0.90;32.60
528;DHT22;250;47.712;7.508;2022-12-11T04:59:04;0.90;32.60
528;DHT22;250;47.712;7.508;2022-12-11T05:01:31;1.00;32.70
528;DHT22;250;47.712;7.508;2022-12-11T05:03:58;1.10;33.30
528;DHT22;250;47.712;7.508;2022-12-11T05:06:27;1.30;33.00
528;DHT22;250;47.712;7.508;2022-12-11T05:08:54;1.30;32.40
528;DHT22;250;47.712;7.508;2022-12-11T05:11:22;1.40;31.90
528;DHT22;250;47.712;7.508;2022-12-11T05:13:51;1.30;30.60
528;DHT22;250;47.712;7.508;2022-12-11T05:16:18;1.30;30.90
528;DHT22;250;47.712;7.508;2022-12-11T05:18:45;1.20;30.50
528;DHT22;250;47.712;7.508;2022-12-11T05:21:14;1.20;30.90
528;DHT22;250;47.712;7.508;2022-12-11T05:23:43;1.20;30.60
528;DHT22;250;47.712;7.508;2022-12-11T05:26:12;1.10;30.50
528;DHT22;250;47.712;7.508;2022-12-11T05:28:40;1.10;30.70
528;DHT22;250;47.712;7.508;2022-12-11T05:31:11;1.00;31.30
528;DHT22;250;47.712;7.508;2022-12-11T05:33:38;1.10;31.90
528;DHT22;250;47.712;7.508;2022-12-11T05:36:06;1.10;31.60
528;DHT22;250;47.712;7.508;2022-12-11T05:38:34;1.20;30.60
528;DHT22;250;47.712;7.508;2022-12-11T05:41:04;1.10;30.80
528;DHT22;250;47.712;7.508;2022-12-11T05:43:33;1.20;31.20
528;DHT22;250;47.712;7.508;2022-12-11T05:46:05;1.20;31.20
528;DHT22;250;47.712;7.508;2022-12-11T05:48:32;1.30;31.20
528;DHT22;250;47.712;7.508;2022-12-11T05:51:01;1.40;31.00
528;DHT22;250;47.712;7.508;2022-12-11T05:53:29;1.40;30.40
528;DHT22;250;47.712;7.508;2022-12-11T05:56:02;1.40;30.50
528;DHT22;250;47.712;7.508;2022-12-11T05:58:29;1.40;30.20
528;DHT22;250;47.712;7.508;2022-12-11T06:00:57;1.50;30.00
528;DHT22;250;47.712;7.508;2022-12-11T06:03:24;1.50;30.00
528;DHT22;250;47.712;7.508;2022-12-11T06:05:51;1.60;29.90
528;DHT22;250;47.712;7.508;2022-12-11T06:08:18;1.70;29.50
528;DHT22;250;47.712;7.508;2022-12-11T06:10:45;1.80;29.40
528;DHT22;250;47.712;7.508;2022-12-11T06:13:15;1.80;29.30
528;DHT22;250;47.712;7.508;2022-12-11T06:15:42;1.80;29.40
528;DHT22;250;47.712;7.508;2022-12-11T06:18:10;1.90;29.30
528;DHT22;250;47.712;7.508;2022-12-11T06:20:37;2.00;29.10
528;DHT22;250;47.712;7.508;2022-12-11T06:23:04;1.90;28.80
528;DHT22;250;47.712;7.508;2022-12-11T06:25:31;1.80;29.00
528;DHT22;250;47.712;7.508;2022-12-11T06:27:58;1.80;28.90
528;DHT22;250;47.712;7.508;2022-12-11T06:30:27;1.70;28.90
528;DHT22;250;47.712;7.508;2022-12-11T06:32:56;1.70;28.90
528;DHT22;250;47.712;7.508;2022-12-11T06:35:23;1.70;28.90
528;DHT22;250;47.712;7.508;2022-12-11T06:37:50;1.70;28.50
528;DHT22;250;47.712;7.508;2022-12-11T06:40:18;1.50;28.70
528;DHT22;250;47.712;7.508;2022-12-11T06:42:45;1.40;29.10
528;DHT22;250;47.712;7.508;2022-12-11T06:45:12;1.40;29.20
528;DHT22;250;47.712;7.508;2022-12-11T06:47:40;1.50;29.20
528;DHT22;250;47.712;7.508;2022-12-11T06:50:08;1.50;28.80
528;DHT22;250;47.712;7.508;2022-12-11T06:52:36;1.50;29.10
528;DHT22;250;47.712;7.508;2022-12-11T06:55:04;1.50;28.70
528;DHT22;250;47.712;7.508;2022-12-11T06:57:32;1.50;28.80
528;DHT22;250;47.712;7.508;2022-12-11T06:59:59;1.60;28.80
528;DHT22;250;47.712;7.508;2022-12-11T07:02:26;1.50;28.80
528;DHT22;250;47.712;7.508;2022-12-11T07:04:55;1.50;28.80
528;DHT22;250;47.712;7.508;2022-12-11T07:07:22;1.60;28.80
528;DHT22;250;47.712;7.508;2022-12-11T07:09:49;1.80;28.90
528;DHT22;250;47.712;7.508;2022-12-11T07:12:16;1.80;28.40
528;DHT22;250;47.712;7.508;2022-12-11T07:14:43;1.90;28.30
528;DHT22;250;47.712;7.508;2022-12-11T07:17:10;1.90;28.10
528;DHT22;250;47.712;7.508;2022-12-11T07:19:38;1.90;28.00
528;DHT22;250;47.712;7.508;2022-12-11T07:22:07;1.90;27.60
528;DHT22;250;47.712;7.508;2022-12-11T07:24:34;1.70;27.40
528;DHT22;250;47.712;7.508;2022-12-11T07:27:03;1.70;27.50
528;DHT22;250;47.712;7.508;2022-12-11T07:29:30;1.70;28.00
528;DHT22;250;47.712;7.508;2022-12-11T07:31:57;1.80;27.90
528;DHT22;250;47.712;7.508;2022-12-11T07:34:24;1.80;27.90
528;DHT22;250;47.712;7.508;2022-12-11T07:36:51;1.90;28.00
528;DHT22;250;47.712;7.508;2022-12-11T07:39:20;1.90;27.70
528;DHT22;250;47.712;7.508;2022-12-11T07:41:47;2.00;27.80
528;DHT22;250;47.712;7.508;2022-12-11T07:44:14;1.90;27.70
528;DHT22;250;47.712;7.508;2022-12-11T07:46:41;2.00;27.60
528;DHT22;250;47.712;7.508;2022-12-11T07:49:08;1.90;27.70
528;DHT22;250;47.712;7.508;2022-12-11T07:51:37;2.00;27.70
528;DHT22;250;47.712;7.508;2022-12-11T07:54:06;1.90;27.40
528;DHT22;250;47.712;7.508;2022-12-11T07:56:35;1.90;27.70
528;DHT22;250;47.712;7.508;2022-12-11T07:59:04;1.90;27.60
528;DHT22;250;47.712;7.508;2022-12-11T08:01:33;1.90;27.70
528;DHT22;250;47.712;7.508;2022-12-11T08:04:01;1.80;27.70
528;DHT22;250;47.712;7.508;2022-12-11T08:06:30;1.70;28.00
528;DHT22;250;47.712;7.508;2022-12-11T08:08:58;1.70;28.30
528;DHT22;250;47.712;7.508;2022-12-11T08:11:27;1.60;28.00
528;DHT22;250;47.712;7.508;2022-12-11T08:13:56;1.60;28.30
528;DHT22;250;47.712;7.508;2022-12-11T08:16:24;1.60;28.30
528;DHT22;250;47.712;7.508;2022-12-11T08:18:52;1.50;28.30
528;DHT22;250;47.712;7.508;2022-12-11T08:21:21;1.50;28.60
528;DHT22;250;47.712;7.508;2022-12-11T08:23:48;1.50;28.70
528;DHT22;250;47.712;7.508;2022-12-11T08:26:18;1.50;28.40
528;DHT22;250;47.712;7.508;2022-12-11T08:28:45;1.50;28.40
528;DHT22;250;47.712;7.508;2022-12-11T08:31:14;1.50;28.80
528;DHT22;250;47.712;7.508;2022-12-11T08:33:42;1.60;28.60
528;DHT22;250;47.712;7.508;2022-12-11T08:36:10;1.60;28.50
528;DHT22;250;47.712;7.508;2022-12-11T08:38:38;1.60;28.40
528;DHT22;250;47.712;7.508;2022-12-11T08:41:08;1.60;28.10
528;DHT22;250;47.712;7.508;2022-12-11T08:43:36;1.70;28.20
528;DHT22;250;47.712;7.508;2022-12-11T08:46:03;1.60;27.90
528;DHT22;250;47.712;7.508;2022-12-11T08:48:33;1.60;28.00
528;DHT22;250;47.712;7.508;2022-12-11T08:51:00;1.70;27.70
528;DHT22;250;47.712;7.508;2022-12-11T08:53:28;1.60;27.70
528;DHT22;250;47.712;7.508;2022-12-11T08:56:00;1.60;27.90
528;DHT22;250;47.712;7.508;2022-12-11T08:58:27;1.60;28.10
528;DHT22;250;47.712;7.508;2022-12-11T09:00:54;1.60;27.60
528;DHT22;250;47.712;7.508;2022-12-11T09:03:21;1.70;27.70
528;DHT22;250;47.712;7.508;2022-12-11T09:05:50;1.70;27.80
528;DHT22;250;47.712;7.508;2022-12-11T09:08:17;1.70;27.60
528;DHT22;250;47.712;7.508;2022-12-11T09:10:44;1.70;27.10
528;DHT22;250;47.712;7.508;2022-12-11T09:13:11;1.70;26.70
528;DHT22;250;47.712;7.508;2022-12-11T09:15:39;1.70;26.60
528;DHT22;250;47.712;7.508;2022-12-11T09:18:07;1.70;26.70
528;DHT22;250;47.712;7.508;2022-12-11T09:20:34;1.70;26.50
528;DHT22;250;47.712;7.508;2022-12-11T09:23:02;1.70;26.40
528;DHT22;250;47.712;7.508;2022-12-11T09:25:29;1.70;26.80
528;DHT22;250;47.712;7.508;2022-12-11T09:27:56;1.70;26.70
528;DHT22;250;47.712;7.508;2022-12-11T09:30:23;1.80;26.60
528;DHT22;250;47.712;7.508;2022-12-11T09:32:51;1.90;26.30
528;DHT22;250;47.712;7.508;2022-12-11T09:35:18;1.90;26.20
528;DHT22;250;47.712;7.508;2022-12-11T09:37:45;2.00;25.90
528;DHT22;250;47.712;7.508;2022-12-11T09:40:14;1.90;26.00
528;DHT22;250;47.712;7.508;2022-12-11T09:42:49;1.90;26.00
528;DHT22;250;47.712;7.508;2022-12-11T09:45:17;1.80;25.40
528;DHT22;250;47.712;7.508;2022-12-11T09:47:47;1.80;25.80
528;DHT22;250;47.712;7.508;2022-12-11T09:50:19;1.80;26.00
528;DHT22;250;47.712;7.508;2022-12-11T09:52:56;1.80;26.00
528;DHT22;250;47.712;7.508;2022-12-11T09:55:33;1.80;25.90
528;DHT22;250;47.712;7.508;2022-12-11T09:58:09;1.70;25.90
528;DHT22;250;47.712;7.508;2022-12-11T10:00:44;1.80;25.20
528;DHT22;250;47.712;7.508;2022-12-11T10:03:32;1.90;25.20
528;DHT22;250;47.712;7.508;2022-12-11T10:06:11;2.00;25.30
528;DHT22;250;47.712;7.508;2022-12-11T10:08:46;2.10;25.80
528;DHT22;250;47.712;7.508;2022-12-11T10:11:42;2.20;25.40
528;DHT22;250;47.712;7.508;2022-12-11T10:14:17;2.20;25.40
528;DHT22;250;47.712;7.508;2022-12-11T10:16:49;2.20;25.40
528;DHT22;250;47.712;7.508;2022-12-11T10:19:19;2.30;25.50
528;DHT22;250;47.712;7.508;2022-12-11T10:21:48;2.30;25.20
528;DHT22;250;47.712;7.508;2022-12-11T10:24:21;2.20;24.50
528;DHT22;250;47.712;7.508;2022-12-11T10:26:55;2.20;24.30
528;DHT22;250;47.712;7.508;2022-12-11T10:29:24;2.10;24.80
528;DHT22;250;47.712;7.508;2022-12-11T10:31:54;2.00;25.30
528;DHT22;250;47.712;7.508;2022-12-11T10:34:29;2.00;25.40
528;DHT22;250;47.712;7.508;2022-12-11T10:36:58;2.00;25.30
528;DHT22;250;47.712;7.508;2022-12-11T10:39:25;2.00;25.60
528;DHT22;250;47.712;7.508;2022-12-11T10:41:55;2.00;25.60
528;DHT22;250;47.712;7.508;2022-12-11T10:44:25;2.00;25.70
528;DHT22;250;47.712;7.508;2022-12-11T10:47:04;2.00;25.30
528;DHT22;250;47.712;7.508;2022-12-11T10:49:33;1.90;26.00
528;DHT22;250;47.712;7.508;2022-12-11T10:52:00;2.00;26.30
528;DHT22;250;47.712;7.508;2022-12-11T10:54:32;1.90;25.70
528;DHT22;250;47.712;7.508;2022-12-11T10:57:02;1.90;25.20
528;DHT22;250;47.712;7.508;2022-12-11T10:59:34;1.90;25.30
528;DHT22;250;47.712;7.508;2022-12-11T11:02:04;1.90;25.50
528;DHT22;250;47.712;7.508;2022-12-11T11:04:35;1.80;25.80
528;DHT22;250;47.712;7.508;2022-12-11T11:07:11;1.80;25.90
528;DHT22;250;47.712;7.508;2022-12-11T11:09:38;1.90;25.30
528;DHT22;250;47.712;7.508;2022-12-11T11:12:19;1.90;25.10
528;DHT22;250;47.712;7.508;2022-12-11T11:14:58;1.80;25.10
528;DHT22;250;47.712;7.508;2022-12-11T11:17:25;1.90;25.20
528;DHT22;250;47.712;7.508;2022-12-11T11:19:52;1.90;24.30
528;DHT22;250;47.712;7.508;2022-12-11T11:22:21;1.90;24.30
528;DHT22;250;47.712;7.508;2022-12-11T11:24:54;2.00;24.50
528;DHT22;250;47.712;7.508;2022-12-11T11:27:28;2.00;24.50
528;DHT22;250;47.712;7.508;2022-12-11T11:29:59;2.10;24.60
528;DHT22;250;47.712;7.508;2022-12-11T11:32:31;2.10;23.70
528;DHT22;250;47.712;7.508;2022-12-11T11:35:19;2.00;24.40
528;DHT22;250;47.712;7.508;2022-12-11T11:37:53;1.90;23.90
528;DHT22;250;47.712;7.508;2022-12-11T11:40:25;1.80;25.20
528;DHT22;250;47.712;7.508;2022-12-11T11:43:04;1.80;25.20
528;DHT22;250;47.712;7.508;2022-12-11T11:45:37;1.70;25.10
528;DHT22;250;47.712;7.508;2022-12-11T11:48:17;1.60;25.80
528;DHT22;250;47.712;7.508;2022-12-11T11:50:46;1.60;25.10
528;DHT22;250;47.712;7.508;2022-12-11T11:53:19;1.60;25.80
528;DHT22;250;47.712;7.508;2022-12-11T11:55:53;1.70;25.70
528;DHT22;250;47.712;7.508;2022-12-11T11:58:27;1.60;25.80
528;DHT22;250;47.712;7.508;2022-12-11T12:00:57;1.60;26.30
528;DHT22;250;47.712;7.508;2022-12-11T12:03:24;1.60;25.00
528;DHT22;250;47.712;7.508;2022-12-11T12:05:55;1.50;25.00
528;DHT22;250;47.712;7.508;2022-12-11T12:08:39;1.40;24.90
528;DHT22;250;47.712;7.508;2022-12-11T12:11:15;1.30;25.30
528;DHT22;250;47.712;7.508;2022-12-11T12:13:51;1.50;25.40
528;DHT22;250;47.712;7.508;2022-12-11T12:16:27;1.60;25.60
528;DHT22;250;47.712;7.508;2022-12-11T12:19:04;1.70;25.60
528;DHT22;250;47.712;7.508;2022-12-11T12:21:36;1.90;24.90
528;DHT22;250;47.712;7.508;2022-12-11T12:24:17;1.90;25.20
528;DHT22;250;47.712;7.508;2022-12-11T12:26:52;2.00;25.30
528;DHT22;250;47.712;7.508;2022-12-11T12:29:34;2.10;24.50
528;DHT22;250;47.712;7.508;2022-12-11T12:32:11;2.20;24.00
528;DHT22;250;47.712;7.508;2022-12-11T12:34:56;2.30;24.30
528;DHT22;250;47.712;7.508;2022-12-11T12:37:39;2.30;23.80
528;DHT22;250;47.712;7.508;2022-12-11T12:40:17;2.30;23.50
528;DHT22;250;47.712;7.508;2022-12-11T12:42:51;2.20;24.10
528;DHT22;250;47.712;7.508;2022-12-11T12:45:27;2.10;24.80
528;DHT22;250;47.712;7.508;2022-12-11T12:47:55;2.10;25.00
528;DHT22;250;47.712;7.508;2022-12-11T12:50:24;2.00;24.90
528;DHT22;250;47.712;7.508;2022-12-11T12:52:53;2.10;25.00
528;DHT22;250;47.712;7.508;2022-12-11T12:55:23;2.20;24.80
528;DHT22;250;47.712;7.508;2022-12-11T12:57:52;2.30;24.60
528;DHT22;250;47.712;7.508;2022-12-11T13:00:33;2.30;23.90
528;DHT22;250;47.712;7.508;2022-12-11T13:03:02;2.10;23.50
528;DHT22;250;47.712;7.508;2022-12-11T13:05:40;2.00;24.10
528;DHT22;250;47.712;7.508;2022-12-11T13:08:09;2.00;24.20
528;DHT22;250;47.712;7.508;2022-12-11T13:10:39;1.90;24.30
528;DHT22;250;47.712;7.508;2022-12-11T13:13:25;2.00;24.70
528;DHT22;250;47.712;7.508;2022-12-11T13:16:05;2.00;24.40
528;DHT22;250;47.712;7.508;2022-12-11T13:18:34;1.80;25.20
528;DHT22;250;47.712;7.508;2022-12-11T13:21:02;1.90;25.20
528;DHT22;250;47.712;7.508;2022-12-11T13:23:31;1.90;25.20
528;DHT22;250;47.712;7.508;2022-12-11T13:26:00;2.00;25.30
528;DHT22;250;47.712;7.508;2022-12-11T13:28:30;2.40;25.60
528;DHT22;250;47.712;7.508;2022-12-11T13:31:05;2.80;25.70
528;DHT22;250;47.712;7.508;2022-12-11T13:33:40;3.30;22.80
528;DHT22;250;47.712;7.508;2022-12-11T13:36:28;3.50;22.40
528;DHT22;250;47.712;7.508;2022-12-11T13:38:59;3.50;22.20
528;DHT22;250;47.712;7.508;2022-12-11T13:41:27;3.40;21.90
528;DHT22;250;47.712;7.508;2022-12-11T13:43:57;3.50;22.10
528;DHT22;250;47.712;7.508;2022-12-11T13:46:28;3.40;21.70
528;DHT22;250;47.712;7.508;2022-12-11T13:48:58;3.20;22.20
528;DHT22;250;47.712;7.508;2022-12-11T13:51:29;3.00;22.60
528;DHT22;250;47.712;7.508;2022-12-11T13:54:12;3.50;23.30
528;DHT22;250;47.712;7.508;2022-12-11T13:56:51;4.10;21.50
528;DHT22;250;47.712;7.508;2022-12-11T13:59:24;4.40;20.60
528;DHT22;250;47.712;7.508;2022-12-11T14:01:55;4.30;20.40
528;DHT22;250;47.712;7.508;2022-12-11T14:04:25;4.00;20.60
528;DHT22;250;47.712;7.508;2022-12-11T14:06:54;3.80;21.00
528;DHT22;250;47.712;7.508;2022-12-11T14:09:23;3.60;21.30
528;DHT22;250;47.712;7.508;2022-12-11T14:11:52;3.40;21.70
528;DHT22;250;47.712;7.508;2022-12-11T14:14:25;3.30;21.90
528;DHT22;250;47.712;7.508;2022-12-11T14:16:55;3.10;22.20
528;DHT22;250;47.712;7.508;2022-12-11T14:19:22;3.10;22.50
528;DHT22;250;47.712;7.508;2022-12-11T14:21:58;3.00;22.70
528;DHT22;250;47.712;7.508;2022-12-11T14:24:26;2.90;22.90
528;DHT22;250;47.712;7.508;2022-12-11T14:26:54;2.90;23.20
528;DHT22;250;47.712;7.508;2022-12-11T14:29:27;2.90;23.30
528;DHT22;250;47.712;7.508;2022-12-11T14:31:58;2.80;23.50
528;DHT22;250;47.712;7.508;2022-12-11T14:34:31;2.70;23.80
528;DHT22;250;47.712;7.508;2022-12-11T14:37:03;2.70;24.20
528;DHT22;250;47.712;7.508;2022-12-11T14:39:34;2.70;24.10
528;DHT22;250;47.712;7.508;2022-12-11T14:42:05;2.70;24.00
528;DHT22;250;47.712;7.508;2022-12-11T14:44:37;2.80;23.80
528;DHT22;250;47.712;7.508;2022-12-11T14:47:14;2.70;23.60
528;DHT22;250;47.712;7.508;2022-12-11T14:49:47;2.70;23.80
528;DHT22;250;47.712;7.508;2022-12-11T14:52:17;2.60;24.10
528;DHT22;250;47.712;7.508;2022-12-11T14:54:48;2.50;24.30
528;DHT22;250;47.712;7.508;2022-12-11T14:57:19;2.50;24.00
528;DHT22;250;47.712;7.508;2022-12-11T14:59:48;2.40;24.10
528;DHT22;250;47.712;7.508;2022-12-11T15:02:35;2.40;24.00
528;DHT22;250;47.712;7.508;2022-12-11T15:05:13;2.40;23.80
528;DHT22;250;47.712;7.508;2022-12-11T15:07:53;2.40;23.80
528;DHT22;250;47.712;7.508;2022-12-11T15:10:26;2.40;23.80
528;DHT22;250;47.712;7.508;2022-12-11T15:12:57;2.30;23.80
528;DHT22;250;47.712;7.508;2022-12-11T15:15:26;2.30;23.70
528;DHT22;250;47.712;7.508;2022-12-11T15:17:55;2.30;23.90
528;DHT22;250;47.712;7.508;2022-12-11T15:20:27;2.30;23.40
528;DHT22;250;47.712;7.508;2022-12-11T15:22:57;2.20;23.90
528;DHT22;250;47.712;7.508;2022-12-11T15:25:27;2.20;23.90
528;DHT22;250;47.712;7.508;2022-12-11T15:27:56;2.20;23.90
528;DHT22;250;47.712;7.508;2022-12-11T15:30:26;2.10;23.90
528;DHT22;250;47.712;7.508;2022-12-11T15:33:18;2.10;24.00
528;DHT22;250;47.712;7.508;2022-12-11T15:35:55;2.10;24.10
528;DHT22;250;47.712;7.508;2022-12-11T15:38:32;2.00;24.20
528;DHT22;250;47.712;7.508;2022-12-11T15:41:00;1.90;24.30
528;DHT22;250;47.712;7.508;2022-12-11T15:43:33;1.90;24.20
528;DHT22;250;47.712;7.508;2022-12-11T15:46:02;2.00;24.20
528;DHT22;250;47.712;7.508;2022-12-11T15:48:31;2.00;24.20
528;DHT22;250;47.712;7.508;2022-12-11T15:50:58;2.00;24.20
528;DHT22;250;47.712;7.508;2022-12-11T15:53:25;1.90;24.40
528;DHT22;250;47.712;7.508;2022-12-11T15:55:52;1.90;24.50
528;DHT22;250;47.712;7.508;2022-12-11T15:58:21;1.80;24.70
528;DHT22;250;47.712;7.508;2022-12-11T16:00:49;1.70;25.00
528;DHT22;250;47.712;7.508;2022-12-11T16:03:18;1.80;25.20
528;DHT22;250;47.712;7.508;2022-12-11T16:05:48;1.80;25.20
528;DHT22;250;47.712;7.508;2022-12-11T16:08:19;1.70;25.10
528;DHT22;250;47.712;7.508;2022-12-11T16:10:47;1.70;25.10
528;DHT22;250;47.712;7.508;2022-12-11T16:13:14;1.70;24.80
528;DHT22;250;47.712;7.508;2022-12-11T16:15:43;1.80;24.60
528;DHT22;250;47.712;7.508;2022-12-11T16:18:13;1.80;24.50
528;DHT22;250;47.712;7.508;2022-12-11T16:20:42;1.80;24.60
528;DHT22;250;47.712;7.508;2022-12-11T16:23:12;1.70;24.90
528;DHT22;250;47.712;7.508;2022-12-11T16:25:41;1.70;25.10
528;DHT22;250;47.712;7.508;2022-12-11T16:28:11;1.80;25.10
528;DHT22;250;47.712;7.508;2022-12-11T16:30:38;1.80;24.50
528;DHT22;250;47.712;7.508;2022-12-11T16:33:08;1.70;23.90
528;DHT22;250;47.712;7.508;2022-12-11T16:35:35;1.70;23.80
528;DHT22;250;47.712;7.508;2022-12-11T16:38:02;1.70;23.70
528;DHT22;250;47.712;7.508;2022-12-11T16:40:31;1.70;23.70
528;DHT22;250;47.712;7.508;2022-12-11T16:42:58;1.60;23.60
528;DHT22;250;47.712;7.508;2022-12-11T16:45:26;1.60;23.50
528;DHT22;250;47.712;7.508;2022-12-11T16:47:53;1.50;23.30
528;DHT22;250;47.712;7.508;2022-12-11T16:50:20;1.50;23.40
528;DHT22;250;47.712;7.508;2022-12-11T16:52:48;1.20;23.90
528;DHT22;250;47.712;7.508;2022-12-11T16:55:15;1.10;24.60
528;DHT22;250;47.712;7.508;2022-12-11T16:57:48;0.90;24.60
528;DHT22;250;47.712;7.508;2022-12-11T17:00:15;0.60;25.20
528;DHT22;250;47.712;7.508;2022-12-11T17:02:42;0.70;24.90
528;DHT22;250;47.712;7.508;2022-12-11T17:05:10;0.70;24.90
528;DHT22;250;47.712;7.508;2022-12-11T17:07:37;0.80;24.50
528;DHT22;250;47.712;7.508;2022-12-11T17:10:05;0.90;24.60
528;DHT22;250;47.712;7.508;2022-12-11T17:12:32;1.00;24.40